HANVEC (29) - G2

Date : 12/08/2016

Place Nom Licence Catégorie Club Temps CN à J-60 Points Différence Nouveau CN
1 EGGLI Roland 5938 H70 6803AL 0:23:37 4563 4626 +63 4578
2 RENNOTTE Georges 29874 H70 5703LO 0:24:42 4217 4424 +207 4217
3 GATY Daniele 841 D60 4203RA 0:25:14 3891 4330 +439 4084
4 RICHARD Nicole 14245 D65 0207PI 0:25:25 3539 4299 +760 3608
5 VOGT Claude 2558 H70 6709AL 0:25:54 3749 4219 +470 3867
6 VANNIER Bernard 2119 H70 7703IF 0:26:15 4729 4162 -567 4729
7 RICHAUD Alain 4156 H70 0615PZ 0:27:26 4859 3983 -876 4989
8 THIEBAULT Monique 5033 D70 3318AQ 0:29:27 3329 3710 +381 3474
9 COLOMBI Annunciata 30804 D60 5703LO 0:30:18 3516 3606 +90 3577
10 LAMBERT Nadine 5607 D60 7203PL 0:30:59 2836 3526 +690 3180
11 COLOMBET Christian 3163 H70 2108BO 0:31:22 4881 3483 -1398 4822
12 LOISY Sylvie 25576 D60 2104BO 0:31:23 3049 3482 +433 3156
13 JEANPIERRE M-Therese 3302 D70 8809LO 0:32:01 2983 3413 +430 3117
14 DIEUDONNE Madeleine 1380 D65 7808IF 0:33:08 3443 3298 -145 3407
15 DUBROCA Monique 633 D65 3308AQ 0:33:53 4268 3225 -1043 4131
16 KENANE Abdelkader 1448 H75 5501LO 0:34:24 3574 3176 -398 3558
17 BOURRIN M-Francoise 807 D60 4203RA 0:34:28 2754 3170 +416 2813
18 RIAULT Bernard 2555 H70 6804AL 0:34:33 2563 3162 +599 2896
19 MOUCHETTE Regine 2539 D60 5703LO 0:36:12 3250 3018 -232 3185
20 LECOYER Annick 2885 D65 0207PI 0:36:15 3096 3014 -82 3116
21 BAUDRY J-Claude 1693 H70 1705PC 0:37:09 3333 2941 -392 3138
22 GROSJEAN Pierre 12354 H75 6913RA 0:37:37 2790 2905 +115 2873
23 VOGT Christiane 2557 D65 6709AL 0:38:06 3242 2868 -374 3167
24 DOMENICI J-Claude 1052 H75 1705PC 0:39:09 2959 2791 -168 3023
25 AGUILLE Veronique 9904 D65 1403NM 0:39:11 2788 2164
26 LEFRANÇOIS Gérard 1938 H70 9502IF 0:39:38 3506 2757 -749 3701
27 HARDEL Elisabeth 8998 D65 1403NM 0:40:00 2550 2732 +182 1925
28 NANOUX-CHATELAIN Françoise 32813 D65 5703LO 0:40:07 2411 2724 +313 2699
29 DUBROCA J-Michel 4507 H70 3308AQ 0:40:30 3435 2698 -737 3248
30 COLLETER J-Claude 1264 H75 8607PC 0:41:29 2097 2634 +537 2211
31 CERET Martine 4597 D60 4203RA 0:41:32 2973 2631 -342 3243
32 TESSIER Ariane 2004 D60 7709IF 0:42:34 3078 2567 -511 2980
33 RIFFARD J-Claude 2445 H75 5702LO 0:42:44 2835 2557 -278 2748
34 DIEUDONNE Roland 1381 H70 7808IF 0:43:25 2527 2517 -10 2579
35 EGGLI Margrit 27392 D65 6803AL 0:43:38 3415 2504 -911 3660
36 BERION Marie-Josephe 23056 D60 2508FC 0:44:49 2373 2438 +65 2381
37 RUAUD Agnes 739 D65 2508FC 0:46:01 2439 2374 -65 2576
38 POGU Paulette 4671 D65 5402LO 0:46:13 2292 2364 +72 2394
39 NATALI Annie 1106 D65 8105MP 0:46:36 1905 2345 +440 2298
40 MONTANARI Colette 2533 D65 5703LO 0:47:03 2983 2322 -661 2969
41 ELIAS Jean-claude 24745 H70 1307PZ 0:47:27 3950 2303 -1647 3906
42 KIEFFER Mireille 2680 D65 2101BO 0:48:08 2289 2270 -19 2287
43 COULON Annick 10073 D65 0615PZ 0:48:26 3199 2256 -943 2848
44 THEVENON Catherine 29294 D65 1705PC 0:48:30 2557 2253 -304 2531
45 FERCHAUD Christian 26157 H70 6604LR 0:48:37 3623 2247 -1376 3630
46 POUPIER Claudine 13991 D65 7203PL 0:49:17 2221 2217 -4 2278
47 PALUD Joel 14253 H70 8319PZ 0:49:58 2003 2187 +184 2452
48 GROSJEAN A-Marie 12059 D75 6913RA 0:50:01 2306 2185 -121 2378
49 LEGUEN Joseph 8138 H70 2208BR 0:51:03 3350 2140 -1210 3333
50 MOULIERE M-Bernadette 2888 D70 0207PI 0:51:07 2954 2138 -816 2929
51 DRAULT J-Raymond 4234 H70 8702LI 0:54:45 2741 1996 -745 2751
52 RENNOTTE Manon 29875 D70 5703LO 0:54:48 2703 1994 -709 2639
53 LARMINACH Genevieve 647 D70 3308AQ 0:55:52 1701 1956 +255 1667
54 PAPILLON Françoise 2761 D60 2109BO 0:57:51 2773 1889 -884 2788
55 LUDEWIG-JAMES Carol 15894 D75 5907NO 1:03:52 1460 1711 +251 1531
56 LABEUR Roselyne 905 D65 7707IF 1:07:18 3107 1624 -1483 3253
57 LAUNEY Noella 11368 D75 7203PL 1:10:18 1653 1554 -99 1905
58 PENALVA Roger 1706 H70 1705PC 1:15:21 2198 1450 -748 2429
59 RIMETZ Marcelline 22235 D60 6208NO 1:16:13 2063 1434 -629 2458
60 THIEBAULT M-Paule 4490 D65 6804AL 1:16:34 2064 1427 -637 2081
61 CAU Martine 10313 D60 4504CE 1:19:23 1794 1376 -418 1951
62 LEGAL Annie 3243 D60 2208BR 1:23:02 1792 1316 -476 1864
63 BELDOWSKI Andrew 18509 H80 2208BR 1:27:05 1196 1255 +59 1249
FEHLEN Jacqueline 20808 D70 5407LO abandon 1935 0 2202
VILLEDIEU Martine 13752 D60 4201RA pm 3796 0 3776
ANNE Brigitte 1672 D65 0111RA pm 4145 0 4208
BASTIEN-FATH Nicole 8954 D70 5402LO pm 2380 0 2393
DODIN Genevieve 4392 D65 8809LO pm 1926 0 1926